createdAt,value
2023-03-12T00:01:59.788Z,0.90
2023-03-12T00:07:01.922Z,0.90
2023-03-12T00:12:03.669Z,0.90
2023-03-12T00:17:05.255Z,0.90
2023-03-12T00:22:06.838Z,1.00
2023-03-12T00:27:08.481Z,1.00
2023-03-12T00:32:10.180Z,1.00
2023-03-12T00:37:11.759Z,1.00
2023-03-12T00:42:13.840Z,1.10
2023-03-12T00:47:15.467Z,1.10
2023-03-12T00:52:17.045Z,1.10
2023-03-12T00:57:18.585Z,1.20
2023-03-12T01:02:20.156Z,1.20
2023-03-12T01:07:21.761Z,1.40
2023-03-12T01:12:23.464Z,1.30
2023-03-12T01:17:25.115Z,1.30
2023-03-12T01:22:26.704Z,1.30
2023-03-12T01:27:28.301Z,1.40
2023-03-12T01:32:29.896Z,1.50
2023-03-12T01:37:32.228Z,1.50
2023-03-12T01:42:33.838Z,1.50
2023-03-12T01:47:35.416Z,1.60
2023-03-12T01:52:38.135Z,1.60
2023-03-12T01:57:43.590Z,1.60
2023-03-12T02:02:46.444Z,1.60
2023-03-12T02:07:48.686Z,1.60
2023-03-12T02:12:50.591Z,1.60
2023-03-12T02:17:54.078Z,1.60
2023-03-12T02:23:00.856Z,1.60
2023-03-12T02:28:04.111Z,1.60
2023-03-12T02:33:06.746Z,1.70
2023-03-12T02:38:27.325Z,1.70
2023-03-12T02:43:28.951Z,1.70
2023-03-12T02:48:30.677Z,1.80
2023-03-12T02:53:32.246Z,1.90
2023-03-12T02:58:33.859Z,1.90
2023-03-12T03:03:35.403Z,1.90
2023-03-12T03:08:36.987Z,2.00
2023-03-12T03:13:38.686Z,2.10
2023-03-12T03:18:40.275Z,2.10
2023-03-12T03:23:48.727Z,2.20
2023-03-12T03:28:50.431Z,2.30
2023-03-12T03:33:52.139Z,2.30
2023-03-12T03:38:53.686Z,2.40
2023-03-12T03:43:58.955Z,2.40
2023-03-12T03:49:00.875Z,2.40
2023-03-12T03:54:02.448Z,2.40
2023-03-12T03:59:04.111Z,2.40
2023-03-12T04:04:05.774Z,2.40
2023-03-12T04:09:07.584Z,2.40
2023-03-12T04:14:09.224Z,2.50
2023-03-12T04:19:10.837Z,2.50
2023-03-12T04:24:14.088Z,2.50
2023-03-12T04:29:15.692Z,2.50
2023-03-12T04:34:17.345Z,2.60
2023-03-12T04:39:19.652Z,2.60
2023-03-12T04:44:21.239Z,2.60
2023-03-12T04:49:22.925Z,2.60
2023-03-12T04:54:24.556Z,2.60
2023-03-12T04:59:26.163Z,2.60
2023-03-12T05:04:33.697Z,2.60
2023-03-12T05:09:35.472Z,2.60
2023-03-12T05:14:39.402Z,2.60
2023-03-12T05:19:40.995Z,2.50
2023-03-12T05:24:42.616Z,2.50
2023-03-12T05:29:44.162Z,2.30
2023-03-12T05:34:45.756Z,2.10
2023-03-12T05:39:47.295Z,1.90
2023-03-12T05:44:48.859Z,1.90
2023-03-12T05:49:50.582Z,1.80
2023-03-12T05:54:52.578Z,1.70
2023-03-12T05:59:54.161Z,1.70
2023-03-12T06:04:58.333Z,1.60
2023-03-12T06:10:00.038Z,1.70
2023-03-12T06:15:01.650Z,1.70
2023-03-12T06:20:03.446Z,1.70
2023-03-12T06:25:05.562Z,1.80
2023-03-12T06:30:07.461Z,1.80
2023-03-12T06:35:10.104Z,1.90
2023-03-12T06:40:12.984Z,2.00
2023-03-12T06:45:14.768Z,2.00
2023-03-12T06:50:16.685Z,2.10
2023-03-12T06:55:18.262Z,2.20
2023-03-12T07:00:20.444Z,2.20
2023-03-12T07:05:22.099Z,2.20
2023-03-12T07:10:24.018Z,2.20
2023-03-12T07:15:25.712Z,2.30
2023-03-12T07:20:27.380Z,2.30
2023-03-12T07:25:29.062Z,2.30
2023-03-12T07:30:33.327Z,2.30
2023-03-12T07:35:35.288Z,2.40
2023-03-12T07:40:37.033Z,2.40
2023-03-12T07:45:39.052Z,2.40
2023-03-12T07:50:41.325Z,2.50
2023-03-12T07:55:43.971Z,2.50
2023-03-12T08:00:45.663Z,2.60
2023-03-12T08:05:55.527Z,2.70
2023-03-12T08:10:57.940Z,2.70
2023-03-12T08:15:59.600Z,2.80
2023-03-12T08:21:01.322Z,2.90
2023-03-12T08:26:03.110Z,2.90
2023-03-12T08:31:05.272Z,3.00
2023-03-12T08:36:07.181Z,3.10
2023-03-12T08:41:08.835Z,3.10
2023-03-12T08:46:12.297Z,3.20
2023-03-12T08:51:16.749Z,3.30
2023-03-12T08:56:18.549Z,3.30
2023-03-12T09:01:20.099Z,3.50
2023-03-12T09:06:21.740Z,3.60
2023-03-12T09:11:23.526Z,3.70
2023-03-12T09:16:25.327Z,3.80
2023-03-12T09:21:26.956Z,4.10
2023-03-12T09:26:28.602Z,4.00
2023-03-12T09:31:30.278Z,4.00
2023-03-12T09:36:32.225Z,3.90
2023-03-12T09:41:35.520Z,4.00
2023-03-12T09:46:38.933Z,4.00
2023-03-12T09:51:47.031Z,3.90
2023-03-12T09:56:49.418Z,4.00
2023-03-12T10:01:53.267Z,4.20
2023-03-12T10:06:57.639Z,4.20
2023-03-12T10:12:08.080Z,4.40
2023-03-12T10:17:09.636Z,4.50
2023-03-12T10:22:25.572Z,4.60
2023-03-12T10:27:28.814Z,4.60
2023-03-12T10:32:38.888Z,4.70
2023-03-12T10:37:46.400Z,4.60
2023-03-12T10:42:48.524Z,4.60
2023-03-12T10:47:57.271Z,4.70
2023-03-12T10:53:14.170Z,4.80
2023-03-12T10:58:23.738Z,4.90
2023-03-12T11:03:25.852Z,5.10
2023-03-12T11:08:31.798Z,5.30
2023-03-12T11:13:35.152Z,5.60
2023-03-12T11:18:37.183Z,5.60
2023-03-12T11:23:58.695Z,5.80
2023-03-12T11:29:18.817Z,6.00
2023-03-12T11:34:34.492Z,6.20
2023-03-12T11:39:36.083Z,6.40
2023-03-12T11:44:56.220Z,6.60
2023-03-12T11:50:08.881Z,6.90
2023-03-12T11:55:25.942Z,7.30
2023-03-12T12:00:38.333Z,8.00
2023-03-12T12:05:52.356Z,9.00
2023-03-12T12:11:08.251Z,9.60
2023-03-12T12:16:22.128Z,10.00
2023-03-12T12:21:43.057Z,10.30
2023-03-12T12:26:49.697Z,10.60
2023-03-12T12:31:55.015Z,10.80
2023-03-12T12:37:12.863Z,10.90
2023-03-12T12:42:17.980Z,11.20
2023-03-12T12:47:22.584Z,11.40
2023-03-12T12:52:24.468Z,11.60
2023-03-12T12:57:35.132Z,11.90
2023-03-12T13:02:39.179Z,12.30
2023-03-12T13:07:40.817Z,12.60
2023-03-12T13:12:47.503Z,12.50
2023-03-12T13:17:52.135Z,12.40
2023-03-12T13:23:12.105Z,12.60
2023-03-12T13:28:30.227Z,12.60
2023-03-12T13:33:45.322Z,12.70
2023-03-12T13:38:58.878Z,12.60
2023-03-12T13:44:00.701Z,12.50
2023-03-12T13:49:04.767Z,12.40
2023-03-12T13:54:06.527Z,12.40
2023-03-12T13:59:14.419Z,12.50
2023-03-12T14:04:18.591Z,12.40
2023-03-12T14:09:27.081Z,12.40
2023-03-12T14:14:41.548Z,12.40
2023-03-12T14:19:46.897Z,12.30
2023-03-12T14:24:54.448Z,12.20
2023-03-12T14:30:03.734Z,12.00
2023-03-12T14:35:19.940Z,11.90
2023-03-12T14:40:22.839Z,11.80
2023-03-12T14:45:24.510Z,11.80
2023-03-12T14:50:31.103Z,11.90
2023-03-12T14:55:32.621Z,11.80
2023-03-12T15:00:34.343Z,11.80
2023-03-12T15:05:36.092Z,11.90
2023-03-12T15:10:39.205Z,12.00
2023-03-12T15:15:42.352Z,12.00
2023-03-12T15:20:44.289Z,12.10
2023-03-12T15:25:46.041Z,12.00
2023-03-12T15:30:47.658Z,12.00
2023-03-12T15:36:18.819Z,12.00
2023-03-12T15:41:26.485Z,12.00
2023-03-12T15:46:28.493Z,12.00
2023-03-12T15:51:32.208Z,12.00
2023-03-12T15:56:34.513Z,12.00
2023-03-12T16:01:49.651Z,12.00
2023-03-12T16:06:52.697Z,12.00
2023-03-12T16:11:55.013Z,12.00
2023-03-12T16:16:56.650Z,11.90
2023-03-12T16:21:58.319Z,11.80
2023-03-12T16:27:00.074Z,11.80
2023-03-12T16:32:02.030Z,11.80
2023-03-12T16:37:03.678Z,11.80
2023-03-12T16:42:14.129Z,11.70
2023-03-12T16:47:15.776Z,11.70
2023-03-12T16:52:21.682Z,11.70
2023-03-12T16:57:23.836Z,11.70
2023-03-12T17:02:25.705Z,11.70
2023-03-12T17:07:27.736Z,11.60
2023-03-12T17:12:30.860Z,11.50
2023-03-12T17:17:32.456Z,11.50
2023-03-12T17:22:34.030Z,11.40
2023-03-12T17:27:35.618Z,11.40
2023-03-12T17:32:37.227Z,11.30
2023-03-12T17:37:39.031Z,11.30
2023-03-12T17:42:40.577Z,11.40
2023-03-12T17:47:42.210Z,11.30
2023-03-12T17:52:43.806Z,11.10
2023-03-12T17:57:45.448Z,11.00
2023-03-12T18:02:47.014Z,11.00
2023-03-12T18:07:48.738Z,11.00
2023-03-12T18:12:50.358Z,10.90
2023-03-12T18:17:56.328Z,10.80
2023-03-12T18:22:57.998Z,10.80
2023-03-12T18:27:59.535Z,10.70
2023-03-12T18:33:01.146Z,10.80
2023-03-12T18:38:02.865Z,10.80
2023-03-12T18:43:04.481Z,10.80
2023-03-12T18:48:06.082Z,10.80
2023-03-12T18:53:11.296Z,10.70
2023-03-12T18:58:12.876Z,10.60
2023-03-12T19:03:14.593Z,10.70
2023-03-12T19:08:16.389Z,10.70
2023-03-12T19:13:17.970Z,10.80
2023-03-12T19:18:19.558Z,10.70
2023-03-12T19:23:21.625Z,10.70
2023-03-12T19:28:23.240Z,10.70
2023-03-12T19:33:24.864Z,10.60
2023-03-12T19:38:26.506Z,10.60
2023-03-12T19:43:28.071Z,10.60
2023-03-12T19:48:29.663Z,10.50
2023-03-12T19:53:31.232Z,10.50
2023-03-12T19:58:32.877Z,10.50
2023-03-12T20:03:34.861Z,10.50
2023-03-12T20:08:36.808Z,10.40
2023-03-12T20:13:38.773Z,10.40
2023-03-12T20:18:40.385Z,10.40
2023-03-12T20:23:42.158Z,10.40
2023-03-12T20:28:43.716Z,10.40
2023-03-12T20:33:45.300Z,10.40
2023-03-12T20:38:48.372Z,10.30
2023-03-12T20:43:54.768Z,10.30
2023-03-12T20:48:56.904Z,10.20
2023-03-12T20:53:58.764Z,10.20
2023-03-12T20:59:00.291Z,10.20
2023-03-12T21:04:01.985Z,10.20
2023-03-12T21:09:03.604Z,10.40
2023-03-12T21:14:05.202Z,10.40
2023-03-12T21:19:06.987Z,10.30
2023-03-12T21:24:08.553Z,10.20
2023-03-12T21:29:10.297Z,10.20
2023-03-12T21:34:11.846Z,10.20
2023-03-12T21:39:13.539Z,10.10
2023-03-12T21:44:16.596Z,10.10
2023-03-12T21:49:18.655Z,10.20
2023-03-12T21:54:20.315Z,10.10
2023-03-12T21:59:21.859Z,10.20
2023-03-12T22:04:23.991Z,10.10
2023-03-12T22:09:25.726Z,10.30
2023-03-12T22:14:27.538Z,10.40
2023-03-12T22:19:29.108Z,10.40
2023-03-12T22:24:30.661Z,10.50
2023-03-12T22:29:32.352Z,10.60
2023-03-12T22:34:34.965Z,10.50
2023-03-12T22:39:36.632Z,10.50
2023-03-12T22:44:38.989Z,10.60
2023-03-12T22:49:40.676Z,10.50
2023-03-12T22:54:42.512Z,10.40
2023-03-12T22:59:44.083Z,10.40
2023-03-12T23:04:45.712Z,10.40
2023-03-12T23:09:47.573Z,10.60
2023-03-12T23:14:49.225Z,10.70
2023-03-12T23:19:50.796Z,10.70
2023-03-12T23:24:52.635Z,10.80
2023-03-12T23:29:54.200Z,10.80
2023-03-12T23:34:56.001Z,10.80
2023-03-12T23:39:57.581Z,10.90
2023-03-12T23:44:59.181Z,10.80
2023-03-12T23:50:00.792Z,10.90
2023-03-12T23:55:02.351Z,10.90
